sensor_id;sensor_type;location;lat;lon;timestamp;P1;durP1;ratioP1;P2;durP2;ratioP2
74793;SDS011;63320;50.768;6.724;2023-05-10T00:00:33;8.98;;;6.38;;
74793;SDS011;63320;50.768;6.724;2023-05-10T00:02:59;8.93;;;6.18;;
74793;SDS011;63320;50.768;6.724;2023-05-10T00:05:24;10.13;;;6.40;;
74793;SDS011;63320;50.768;6.724;2023-05-10T00:07:51;12.13;;;6.97;;
74793;SDS011;63320;50.768;6.724;2023-05-10T00:10:16;10.00;;;6.60;;
74793;SDS011;63320;50.768;6.724;2023-05-10T00:12:41;9.60;;;6.38;;
74793;SDS011;63320;50.768;6.724;2023-05-10T00:15:08;10.50;;;6.80;;
74793;SDS011;63320;50.768;6.724;2023-05-10T00:17:34;10.82;;;6.85;;
74793;SDS011;63320;50.768;6.724;2023-05-10T00:19:59;9.35;;;6.50;;
74793;SDS011;63320;50.768;6.724;2023-05-10T00:22:24;9.60;;;6.85;;
74793;SDS011;63320;50.768;6.724;2023-05-10T00:24:51;9.95;;;5.82;;
74793;SDS011;63320;50.768;6.724;2023-05-10T00:27:16;9.35;;;6.20;;
74793;SDS011;63320;50.768;6.724;2023-05-10T00:29:42;8.75;;;6.13;;
74793;SDS011;63320;50.768;6.724;2023-05-10T00:32:07;10.02;;;5.40;;
74793;SDS011;63320;50.768;6.724;2023-05-10T00:34:32;7.57;;;4.82;;
74793;SDS011;63320;50.768;6.724;2023-05-10T00:36:58;7.40;;;5.28;;
74793;SDS011;63320;50.768;6.724;2023-05-10T00:39:23;7.97;;;4.93;;
74793;SDS011;63320;50.768;6.724;2023-05-10T00:41:50;6.63;;;4.03;;
74793;SDS011;63320;50.768;6.724;2023-05-10T00:44:15;7.35;;;4.00;;
74793;SDS011;63320;50.768;6.724;2023-05-10T00:46:41;6.70;;;4.35;;
74793;SDS011;63320;50.768;6.724;2023-05-10T00:49:06;9.00;;;4.70;;
74793;SDS011;63320;50.768;6.724;2023-05-10T00:51:32;7.38;;;4.53;;
74793;SDS011;63320;50.768;6.724;2023-05-10T00:53:57;6.65;;;4.40;;
74793;SDS011;63320;50.768;6.724;2023-05-10T00:56:23;7.80;;;4.25;;
74793;SDS011;63320;50.768;6.724;2023-05-10T00:58:50;5.78;;;3.58;;
74793;SDS011;63320;50.768;6.724;2023-05-10T01:01:16;6.07;;;3.35;;
74793;SDS011;63320;50.768;6.724;2023-05-10T01:03:41;5.90;;;3.13;;
74793;SDS011;63320;50.768;6.724;2023-05-10T01:06:07;5.13;;;2.58;;
74793;SDS011;63320;50.768;6.724;2023-05-10T01:08:32;4.30;;;2.30;;
74793;SDS011;63320;50.768;6.724;2023-05-10T01:10:58;3.60;;;1.95;;
74793;SDS011;63320;50.768;6.724;2023-05-10T01:13:28;4.07;;;2.10;;
74793;SDS011;63320;50.768;6.724;2023-05-10T01:15:59;4.57;;;1.95;;
74793;SDS011;63320;50.768;6.724;2023-05-10T01:18:24;4.68;;;2.20;;
74793;SDS011;63320;50.768;6.724;2023-05-10T01:20:57;4.07;;;2.17;;
74793;SDS011;63320;50.768;6.724;2023-05-10T01:23:36;5.72;;;2.45;;
74793;SDS011;63320;50.768;6.724;2023-05-10T01:29:27;6.07;;;2.85;;
74793;SDS011;63320;50.768;6.724;2023-05-10T01:32:19;5.13;;;3.05;;
74793;SDS011;63320;50.768;6.724;2023-05-10T01:34:54;6.95;;;3.95;;
74793;SDS011;63320;50.768;6.724;2023-05-10T01:37:26;7.75;;;4.63;;
74793;SDS011;63320;50.768;6.724;2023-05-10T01:40:00;9.65;;;5.70;;
74793;SDS011;63320;50.768;6.724;2023-05-10T01:42:35;9.50;;;5.82;;
74793;SDS011;63320;50.768;6.724;2023-05-10T01:45:07;12.23;;;6.82;;
74793;SDS011;63320;50.768;6.724;2023-05-10T01:47:41;12.35;;;7.13;;
74793;SDS011;63320;50.768;6.724;2023-05-10T01:50:19;13.45;;;7.75;;
74793;SDS011;63320;50.768;6.724;2023-05-10T01:52:50;11.35;;;7.05;;
74793;SDS011;63320;50.768;6.724;2023-05-10T01:55:18;10.30;;;6.78;;
74793;SDS011;63320;50.768;6.724;2023-05-10T01:57:47;10.77;;;6.68;;
74793;SDS011;63320;50.768;6.724;2023-05-10T02:00:17;9.90;;;6.28;;
74793;SDS011;63320;50.768;6.724;2023-05-10T02:02:47;9.63;;;5.93;;
74793;SDS011;63320;50.768;6.724;2023-05-10T02:05:14;9.73;;;6.22;;
74793;SDS011;63320;50.768;6.724;2023-05-10T02:07:41;11.02;;;6.80;;
74793;SDS011;63320;50.768;6.724;2023-05-10T02:10:08;10.93;;;5.97;;
74793;SDS011;63320;50.768;6.724;2023-05-10T02:12:36;11.02;;;7.00;;
74793;SDS011;63320;50.768;6.724;2023-05-10T02:15:04;12.52;;;6.20;;
74793;SDS011;63320;50.768;6.724;2023-05-10T02:17:32;9.82;;;5.90;;
74793;SDS011;63320;50.768;6.724;2023-05-10T02:20:01;11.50;;;5.95;;
74793;SDS011;63320;50.768;6.724;2023-05-10T02:22:28;10.75;;;5.88;;
74793;SDS011;63320;50.768;6.724;2023-05-10T02:24:54;9.32;;;5.97;;
74793;SDS011;63320;50.768;6.724;2023-05-10T02:27:20;10.38;;;5.63;;
74793;SDS011;63320;50.768;6.724;2023-05-10T02:29:47;9.57;;;5.07;;
74793;SDS011;63320;50.768;6.724;2023-05-10T02:32:14;8.57;;;5.10;;
74793;SDS011;63320;50.768;6.724;2023-05-10T02:34:41;10.98;;;5.97;;
74793;SDS011;63320;50.768;6.724;2023-05-10T02:37:08;12.32;;;7.22;;
74793;SDS011;63320;50.768;6.724;2023-05-10T02:39:34;13.27;;;7.60;;
74793;SDS011;63320;50.768;6.724;2023-05-10T02:42:00;14.45;;;8.57;;
74793;SDS011;63320;50.768;6.724;2023-05-10T02:44:26;15.95;;;9.52;;
74793;SDS011;63320;50.768;6.724;2023-05-10T02:46:53;15.43;;;9.13;;
74793;SDS011;63320;50.768;6.724;2023-05-10T02:49:19;17.63;;;9.85;;
74793;SDS011;63320;50.768;6.724;2023-05-10T02:51:47;19.23;;;10.60;;
74793;SDS011;63320;50.768;6.724;2023-05-10T02:54:18;19.25;;;10.35;;
74793;SDS011;63320;50.768;6.724;2023-05-10T02:56:47;18.33;;;9.48;;
74793;SDS011;63320;50.768;6.724;2023-05-10T02:59:15;20.85;;;10.35;;
74793;SDS011;63320;50.768;6.724;2023-05-10T03:01:41;19.30;;;10.63;;
74793;SDS011;63320;50.768;6.724;2023-05-10T03:04:06;20.95;;;11.23;;
74793;SDS011;63320;50.768;6.724;2023-05-10T03:06:31;21.55;;;11.20;;
74793;SDS011;63320;50.768;6.724;2023-05-10T03:08:57;19.15;;;11.68;;
74793;SDS011;63320;50.768;6.724;2023-05-10T03:11:27;25.10;;;13.57;;
74793;SDS011;63320;50.768;6.724;2023-05-10T03:14:04;26.55;;;14.18;;
74793;SDS011;63320;50.768;6.724;2023-05-10T03:16:35;26.38;;;14.82;;
74793;SDS011;63320;50.768;6.724;2023-05-10T03:19:10;28.92;;;16.85;;
74793;SDS011;63320;50.768;6.724;2023-05-10T03:21:41;32.78;;;20.00;;
74793;SDS011;63320;50.768;6.724;2023-05-10T03:24:12;35.83;;;19.63;;
74793;SDS011;63320;50.768;6.724;2023-05-10T03:26:40;35.05;;;18.60;;
74793;SDS011;63320;50.768;6.724;2023-05-10T03:29:08;36.85;;;21.40;;
74793;SDS011;63320;50.768;6.724;2023-05-10T03:31:35;39.08;;;21.42;;
74793;SDS011;63320;50.768;6.724;2023-05-10T03:34:00;35.72;;;20.90;;
74793;SDS011;63320;50.768;6.724;2023-05-10T03:36:25;38.28;;;21.00;;
74793;SDS011;63320;50.768;6.724;2023-05-10T03:38:51;35.92;;;21.65;;
74793;SDS011;63320;50.768;6.724;2023-05-10T03:41:16;34.78;;;21.10;;
74793;SDS011;63320;50.768;6.724;2023-05-10T03:43:43;33.00;;;20.80;;
74793;SDS011;63320;50.768;6.724;2023-05-10T03:46:08;38.50;;;21.70;;
74793;SDS011;63320;50.768;6.724;2023-05-10T03:48:33;33.85;;;20.02;;
74793;SDS011;63320;50.768;6.724;2023-05-10T03:50:59;31.42;;;19.60;;
74793;SDS011;63320;50.768;6.724;2023-05-10T03:53:24;38.90;;;22.08;;
74793;SDS011;63320;50.768;6.724;2023-05-10T03:55:50;35.35;;;19.40;;
74793;SDS011;63320;50.768;6.724;2023-05-10T03:58:15;29.00;;;18.27;;
74793;SDS011;63320;50.768;6.724;2023-05-10T04:00:42;29.45;;;18.15;;
74793;SDS011;63320;50.768;6.724;2023-05-10T04:03:07;26.02;;;17.80;;
74793;SDS011;63320;50.768;6.724;2023-05-10T04:05:32;26.08;;;16.42;;
74793;SDS011;63320;50.768;6.724;2023-05-10T04:07:58;23.45;;;15.18;;
74793;SDS011;63320;50.768;6.724;2023-05-10T04:10:23;22.92;;;14.85;;
74793;SDS011;63320;50.768;6.724;2023-05-10T04:12:48;25.30;;;14.38;;
74793;SDS011;63320;50.768;6.724;2023-05-10T04:15:14;24.73;;;15.38;;
74793;SDS011;63320;50.768;6.724;2023-05-10T04:17:41;24.27;;;15.23;;
74793;SDS011;63320;50.768;6.724;2023-05-10T04:20:06;19.33;;;13.32;;
74793;SDS011;63320;50.768;6.724;2023-05-10T04:22:32;20.15;;;14.27;;
74793;SDS011;63320;50.768;6.724;2023-05-10T04:24:58;20.88;;;13.75;;
74793;SDS011;63320;50.768;6.724;2023-05-10T04:27:23;20.65;;;13.90;;
74793;SDS011;63320;50.768;6.724;2023-05-10T04:29:48;21.88;;;13.82;;
74793;SDS011;63320;50.768;6.724;2023-05-10T04:32:13;19.63;;;13.23;;
74793;SDS011;63320;50.768;6.724;2023-05-10T04:34:40;22.35;;;13.68;;
74793;SDS011;63320;50.768;6.724;2023-05-10T04:37:05;22.00;;;14.77;;
74793;SDS011;63320;50.768;6.724;2023-05-10T04:39:31;22.73;;;14.60;;
74793;SDS011;63320;50.768;6.724;2023-05-10T04:41:56;23.25;;;15.20;;
74793;SDS011;63320;50.768;6.724;2023-05-10T04:44:21;26.50;;;15.75;;
74793;SDS011;63320;50.768;6.724;2023-05-10T04:46:47;23.73;;;15.27;;
74793;SDS011;63320;50.768;6.724;2023-05-10T04:49:12;23.77;;;16.25;;
74793;SDS011;63320;50.768;6.724;2023-05-10T04:51:39;27.92;;;17.10;;
74793;SDS011;63320;50.768;6.724;2023-05-10T04:54:04;30.63;;;18.15;;
74793;SDS011;63320;50.768;6.724;2023-05-10T04:56:29;28.42;;;17.02;;
74793;SDS011;63320;50.768;6.724;2023-05-10T04:58:55;31.92;;;18.13;;
74793;SDS011;63320;50.768;6.724;2023-05-10T05:01:20;29.55;;;19.15;;
74793;SDS011;63320;50.768;6.724;2023-05-10T05:03:45;33.35;;;18.45;;
74793;SDS011;63320;50.768;6.724;2023-05-10T05:06:11;34.05;;;18.75;;
74793;SDS011;63320;50.768;6.724;2023-05-10T05:08:37;29.25;;;19.15;;
74793;SDS011;63320;50.768;6.724;2023-05-10T05:11:03;35.35;;;20.08;;
74793;SDS011;63320;50.768;6.724;2023-05-10T05:13:28;29.38;;;18.10;;
74793;SDS011;63320;50.768;6.724;2023-05-10T05:15:53;32.60;;;19.17;;
74793;SDS011;63320;50.768;6.724;2023-05-10T05:18:19;28.75;;;16.80;;
74793;SDS011;63320;50.768;6.724;2023-05-10T05:20:44;29.20;;;16.65;;
74793;SDS011;63320;50.768;6.724;2023-05-10T05:23:09;26.73;;;16.08;;
74793;SDS011;63320;50.768;6.724;2023-05-10T05:25:36;24.83;;;15.45;;
74793;SDS011;63320;50.768;6.724;2023-05-10T05:28:01;23.45;;;14.00;;
74793;SDS011;63320;50.768;6.724;2023-05-10T05:30:27;22.83;;;14.07;;
74793;SDS011;63320;50.768;6.724;2023-05-10T05:32:52;20.15;;;12.77;;
74793;SDS011;63320;50.768;6.724;2023-05-10T05:35:18;18.80;;;10.45;;
74793;SDS011;63320;50.768;6.724;2023-05-10T05:37:43;14.60;;;10.00;;
74793;SDS011;63320;50.768;6.724;2023-05-10T05:40:11;15.32;;;9.38;;
74793;SDS011;63320;50.768;6.724;2023-05-10T05:42:40;19.05;;;10.50;;
74793;SDS011;63320;50.768;6.724;2023-05-10T05:45:05;15.40;;;8.50;;
74793;SDS011;63320;50.768;6.724;2023-05-10T05:47:31;14.27;;;8.30;;
74793;SDS011;63320;50.768;6.724;2023-05-10T05:49:57;14.48;;;9.25;;
74793;SDS011;63320;50.768;6.724;2023-05-10T05:52:22;15.88;;;8.35;;
74793;SDS011;63320;50.768;6.724;2023-05-10T05:54:47;15.32;;;8.05;;
74793;SDS011;63320;50.768;6.724;2023-05-10T05:57:13;13.27;;;6.55;;
74793;SDS011;63320;50.768;6.724;2023-05-10T05:59:39;13.25;;;7.13;;
74793;SDS011;63320;50.768;6.724;2023-05-10T06:02:05;10.88;;;6.45;;
74793;SDS011;63320;50.768;6.724;2023-05-10T06:04:30;13.48;;;6.90;;
74793;SDS011;63320;50.768;6.724;2023-05-10T06:06:55;12.45;;;7.00;;
74793;SDS011;63320;50.768;6.724;2023-05-10T06:09:20;10.63;;;6.82;;
74793;SDS011;63320;50.768;6.724;2023-05-10T06:11:46;13.80;;;6.43;;
74793;SDS011;63320;50.768;6.724;2023-05-10T06:14:11;11.88;;;6.88;;
74793;SDS011;63320;50.768;6.724;2023-05-10T06:16:38;12.57;;;5.97;;
74793;SDS011;63320;50.768;6.724;2023-05-10T06:19:03;11.77;;;6.25;;
74793;SDS011;63320;50.768;6.724;2023-05-10T06:21:29;11.30;;;6.50;;
74793;SDS011;63320;50.768;6.724;2023-05-10T06:23:54;14.05;;;7.25;;
74793;SDS011;63320;50.768;6.724;2023-05-10T06:26:19;13.13;;;5.55;;
74793;SDS011;63320;50.768;6.724;2023-05-10T06:28:45;9.13;;;5.45;;
74793;SDS011;63320;50.768;6.724;2023-05-10T06:31:10;12.63;;;5.78;;
74793;SDS011;63320;50.768;6.724;2023-05-10T06:33:37;12.00;;;5.95;;
74793;SDS011;63320;50.768;6.724;2023-05-10T06:36:02;12.85;;;5.88;;
74793;SDS011;63320;50.768;6.724;2023-05-10T06:38:28;13.98;;;5.88;;
74793;SDS011;63320;50.768;6.724;2023-05-10T06:40:53;12.60;;;6.35;;
74793;SDS011;63320;50.768;6.724;2023-05-10T06:43:19;13.82;;;6.43;;
74793;SDS011;63320;50.768;6.724;2023-05-10T06:45:44;14.02;;;6.28;;
74793;SDS011;63320;50.768;6.724;2023-05-10T06:48:09;12.43;;;6.10;;
74793;SDS011;63320;50.768;6.724;2023-05-10T06:50:36;13.32;;;6.40;;
74793;SDS011;63320;50.768;6.724;2023-05-10T06:53:01;11.27;;;5.65;;
74793;SDS011;63320;50.768;6.724;2023-05-10T06:55:27;10.75;;;5.80;;
74793;SDS011;63320;50.768;6.724;2023-05-10T06:57:52;13.68;;;6.15;;
74793;SDS011;63320;50.768;6.724;2023-05-10T07:00:18;13.90;;;6.20;;
74793;SDS011;63320;50.768;6.724;2023-05-10T07:02:44;10.75;;;4.93;;
74793;SDS011;63320;50.768;6.724;2023-05-10T07:05:09;12.27;;;5.63;;
74793;SDS011;63320;50.768;6.724;2023-05-10T07:07:36;10.43;;;5.70;;
74793;SDS011;63320;50.768;6.724;2023-05-10T07:10:02;11.73;;;5.43;;
74793;SDS011;63320;50.768;6.724;2023-05-10T07:12:27;13.82;;;5.65;;
74793;SDS011;63320;50.768;6.724;2023-05-10T07:14:53;10.30;;;4.90;;
74793;SDS011;63320;50.768;6.724;2023-05-10T07:17:18;11.25;;;5.45;;
74793;SDS011;63320;50.768;6.724;2023-05-10T07:19:43;9.63;;;4.85;;
74793;SDS011;63320;50.768;6.724;2023-05-10T07:22:09;12.57;;;4.82;;
74793;SDS011;63320;50.768;6.724;2023-05-10T07:24:35;8.80;;;4.90;;
74793;SDS011;63320;50.768;6.724;2023-05-10T07:27:01;9.48;;;4.13;;
74793;SDS011;63320;50.768;6.724;2023-05-10T07:29:26;11.80;;;4.63;;
74793;SDS011;63320;50.768;6.724;2023-05-10T07:31:51;7.53;;;4.10;;
74793;SDS011;63320;50.768;6.724;2023-05-10T07:34:17;11.93;;;4.30;;
74793;SDS011;63320;50.768;6.724;2023-05-10T07:36:42;10.73;;;4.63;;
74793;SDS011;63320;50.768;6.724;2023-05-10T07:39:08;8.02;;;4.05;;
74793;SDS011;63320;50.768;6.724;2023-05-10T07:41:34;8.18;;;4.05;;
74793;SDS011;63320;50.768;6.724;2023-05-10T07:44:00;8.30;;;4.05;;
74793;SDS011;63320;50.768;6.724;2023-05-10T07:46:25;8.27;;;4.22;;
74793;SDS011;63320;50.768;6.724;2023-05-10T07:48:50;7.43;;;3.40;;
74793;SDS011;63320;50.768;6.724;2023-05-10T07:51:16;5.60;;;2.20;;
74793;SDS011;63320;50.768;6.724;2023-05-10T07:53:41;5.03;;;1.60;;
74793;SDS011;63320;50.768;6.724;2023-05-10T07:56:22;2.15;;;0.90;;
74793;SDS011;63320;50.768;6.724;2023-05-10T07:58:50;2.28;;;0.88;;
74793;SDS011;63320;50.768;6.724;2023-05-10T08:01:15;2.08;;;0.85;;
74793;SDS011;63320;50.768;6.724;2023-05-10T08:03:41;1.67;;;0.80;;
74793;SDS011;63320;50.768;6.724;2023-05-10T08:06:06;2.25;;;0.80;;
74793;SDS011;63320;50.768;6.724;2023-05-10T08:08:31;1.50;;;0.70;;
74793;SDS011;63320;50.768;6.724;2023-05-10T08:10:57;1.77;;;0.70;;
74793;SDS011;63320;50.768;6.724;2023-05-10T08:13:22;2.25;;;0.80;;
74793;SDS011;63320;50.768;6.724;2023-05-10T08:15:49;1.52;;;0.73;;
74793;SDS011;63320;50.768;6.724;2023-05-10T08:18:14;0.80;;;0.50;;
74793;SDS011;63320;50.768;6.724;2023-05-10T08:20:39;2.40;;;0.70;;
74793;SDS011;63320;50.768;6.724;2023-05-10T08:23:05;1.63;;;0.70;;
74793;SDS011;63320;50.768;6.724;2023-05-10T08:25:30;1.10;;;0.63;;
74793;SDS011;63320;50.768;6.724;2023-05-10T08:27:56;1.40;;;0.60;;
74793;SDS011;63320;50.768;6.724;2023-05-10T08:30:21;1.50;;;0.70;;
74793;SDS011;63320;50.768;6.724;2023-05-10T08:32:48;1.77;;;0.75;;
74793;SDS011;63320;50.768;6.724;2023-05-10T08:35:14;2.15;;;0.85;;
74793;SDS011;63320;50.768;6.724;2023-05-10T08:37:40;3.00;;;0.90;;
74793;SDS011;63320;50.768;6.724;2023-05-10T08:40:06;2.00;;;0.80;;
74793;SDS011;63320;50.768;6.724;2023-05-10T08:42:34;2.33;;;1.00;;
74793;SDS011;63320;50.768;6.724;2023-05-10T08:45:01;1.58;;;0.90;;
74793;SDS011;63320;50.768;6.724;2023-05-10T08:47:27;3.33;;;0.85;;
74793;SDS011;63320;50.768;6.724;2023-05-10T08:49:55;2.15;;;0.90;;
74793;SDS011;63320;50.768;6.724;2023-05-10T08:52:23;2.78;;;1.10;;
74793;SDS011;63320;50.768;6.724;2023-05-10T08:54:51;3.40;;;1.02;;
74793;SDS011;63320;50.768;6.724;2023-05-10T08:57:16;2.70;;;1.25;;
74793;SDS011;63320;50.768;6.724;2023-05-10T08:59:43;2.35;;;1.08;;
74793;SDS011;63320;50.768;6.724;2023-05-10T09:02:09;3.40;;;1.42;;
74793;SDS011;63320;50.768;6.724;2023-05-10T09:04:36;3.60;;;1.60;;
74793;SDS011;63320;50.768;6.724;2023-05-10T09:07:03;4.00;;;1.52;;
74793;SDS011;63320;50.768;6.724;2023-05-10T09:09:29;4.90;;;2.10;;
74793;SDS011;63320;50.768;6.724;2023-05-10T09:11:54;5.93;;;2.47;;
74793;SDS011;63320;50.768;6.724;2023-05-10T09:14:20;7.75;;;3.22;;
74793;SDS011;63320;50.768;6.724;2023-05-10T09:16:45;8.32;;;3.90;;
74793;SDS011;63320;50.768;6.724;2023-05-10T09:19:11;10.02;;;4.95;;
74793;SDS011;63320;50.768;6.724;2023-05-10T09:21:37;10.30;;;5.07;;
74793;SDS011;63320;50.768;6.724;2023-05-10T09:24:04;10.07;;;5.20;;
74793;SDS011;63320;50.768;6.724;2023-05-10T09:26:30;10.02;;;4.63;;
74793;SDS011;63320;50.768;6.724;2023-05-10T09:28:56;10.25;;;4.75;;
74793;SDS011;63320;50.768;6.724;2023-05-10T09:31:22;9.55;;;4.80;;
74793;SDS011;63320;50.768;6.724;2023-05-10T09:33:48;12.23;;;6.05;;
74793;SDS011;63320;50.768;6.724;2023-05-10T09:36:14;10.63;;;5.10;;
74793;SDS011;63320;50.768;6.724;2023-05-10T09:38:47;7.75;;;4.05;;
74793;SDS011;63320;50.768;6.724;2023-05-10T09:41:17;6.88;;;3.10;;
74793;SDS011;63320;50.768;6.724;2023-05-10T09:43:43;4.40;;;1.85;;
74793;SDS011;63320;50.768;6.724;2023-05-10T09:46:09;2.47;;;1.00;;
74793;SDS011;63320;50.768;6.724;2023-05-10T09:48:34;2.17;;;0.93;;
74793;SDS011;63320;50.768;6.724;2023-05-10T09:51:06;1.83;;;0.90;;
74793;SDS011;63320;50.768;6.724;2023-05-10T09:53:31;1.38;;;0.80;;
74793;SDS011;63320;50.768;6.724;2023-05-10T09:55:57;1.55;;;0.80;;
74793;SDS011;63320;50.768;6.724;2023-05-10T09:58:24;3.17;;;1.00;;
74793;SDS011;63320;50.768;6.724;2023-05-10T10:00:49;2.20;;;0.90;;
74793;SDS011;63320;50.768;6.724;2023-05-10T10:03:16;1.30;;;0.70;;
74793;SDS011;63320;50.768;6.724;2023-05-10T10:05:42;1.90;;;0.60;;
74793;SDS011;63320;50.768;6.724;2023-05-10T10:08:09;2.58;;;0.90;;
74793;SDS011;63320;50.768;6.724;2023-05-10T10:10:35;1.20;;;0.60;;
74793;SDS011;63320;50.768;6.724;2023-05-10T10:13:01;2.63;;;0.80;;
74793;SDS011;63320;50.768;6.724;2023-05-10T10:15:28;1.00;;;0.70;;
74793;SDS011;63320;50.768;6.724;2023-05-10T10:17:53;1.38;;;0.60;;
74793;SDS011;63320;50.768;6.724;2023-05-10T10:20:20;1.90;;;0.80;;
74793;SDS011;63320;50.768;6.724;2023-05-10T10:22:46;1.92;;;0.80;;
74793;SDS011;63320;50.768;6.724;2023-05-10T10:25:12;1.67;;;0.70;;
74793;SDS011;63320;50.768;6.724;2023-05-10T10:27:41;2.15;;;0.93;;
74793;SDS011;63320;50.768;6.724;2023-05-10T10:30:16;1.95;;;0.90;;
74793;SDS011;63320;50.768;6.724;2023-05-10T10:35:40;2.47;;;1.17;;
74793;SDS011;63320;50.768;6.724;2023-05-10T10:38:07;5.50;;;1.13;;
74793;SDS011;63320;50.768;6.724;2023-05-10T10:40:33;2.45;;;0.90;;
74793;SDS011;63320;50.768;6.724;2023-05-10T10:43:20;2.17;;;0.90;;
74793;SDS011;63320;50.768;6.724;2023-05-10T10:45:48;2.10;;;0.90;;
74793;SDS011;63320;50.768;6.724;2023-05-10T10:48:38;2.88;;;1.20;;
74793;SDS011;63320;50.768;6.724;2023-05-10T10:51:03;3.42;;;1.40;;
74793;SDS011;63320;50.768;6.724;2023-05-10T10:53:28;3.03;;;1.60;;
74793;SDS011;63320;50.768;6.724;2023-05-10T10:56:02;3.47;;;1.70;;
74793;SDS011;63320;50.768;6.724;2023-05-10T10:58:30;3.28;;;1.77;;
74793;SDS011;63320;50.768;6.724;2023-05-10T11:01:08;4.10;;;1.92;;
74793;SDS011;63320;50.768;6.724;2023-05-10T11:03:39;4.00;;;1.90;;
74793;SDS011;63320;50.768;6.724;2023-05-10T11:06:05;2.97;;;1.52;;
74793;SDS011;63320;50.768;6.724;2023-05-10T11:08:31;3.03;;;1.50;;
74793;SDS011;63320;50.768;6.724;2023-05-10T11:11:04;3.63;;;1.50;;
74793;SDS011;63320;50.768;6.724;2023-05-10T11:13:32;4.80;;;2.05;;
74793;SDS011;63320;50.768;6.724;2023-05-10T11:15:58;3.72;;;2.10;;
74793;SDS011;63320;50.768;6.724;2023-05-10T11:18:36;5.18;;;2.30;;
74793;SDS011;63320;50.768;6.724;2023-05-10T11:21:02;4.32;;;2.40;;
74793;SDS011;63320;50.768;6.724;2023-05-10T11:23:31;4.20;;;2.38;;
74793;SDS011;63320;50.768;6.724;2023-05-10T11:25:58;3.70;;;2.15;;
74793;SDS011;63320;50.768;6.724;2023-05-10T11:28:24;3.58;;;2.10;;
74793;SDS011;63320;50.768;6.724;2023-05-10T11:30:50;4.95;;;1.40;;
74793;SDS011;63320;50.768;6.724;2023-05-10T11:33:17;5.13;;;1.73;;
74793;SDS011;63320;50.768;6.724;2023-05-10T11:35:44;3.90;;;1.92;;
74793;SDS011;63320;50.768;6.724;2023-05-10T11:38:11;2.70;;;1.63;;
74793;SDS011;63320;50.768;6.724;2023-05-10T11:40:37;2.75;;;1.42;;
74793;SDS011;63320;50.768;6.724;2023-05-10T11:43:03;5.70;;;1.88;;
74793;SDS011;63320;50.768;6.724;2023-05-10T11:45:31;3.00;;;1.35;;
74793;SDS011;63320;50.768;6.724;2023-05-10T11:47:57;2.33;;;1.40;;
74793;SDS011;63320;50.768;6.724;2023-05-10T11:50:22;3.13;;;1.27;;
74793;SDS011;63320;50.768;6.724;2023-05-10T11:52:51;2.80;;;1.23;;
74793;SDS011;63320;50.768;6.724;2023-05-10T11:55:17;2.67;;;1.00;;
74793;SDS011;63320;50.768;6.724;2023-05-10T11:57:42;2.08;;;1.00;;
74793;SDS011;63320;50.768;6.724;2023-05-10T12:00:08;3.13;;;1.15;;
74793;SDS011;63320;50.768;6.724;2023-05-10T12:02:34;3.65;;;1.38;;
74793;SDS011;63320;50.768;6.724;2023-05-10T12:04:59;3.03;;;1.30;;
74793;SDS011;63320;50.768;6.724;2023-05-10T12:07:25;4.18;;;1.20;;
74793;SDS011;63320;50.768;6.724;2023-05-10T12:12:37;4.05;;;1.17;;
74793;SDS011;63320;50.768;6.724;2023-05-10T12:15:03;2.55;;;1.35;;
74793;SDS011;63320;50.768;6.724;2023-05-10T12:17:30;3.90;;;1.42;;
74793;SDS011;63320;50.768;6.724;2023-05-10T12:19:58;3.15;;;1.63;;
74793;SDS011;63320;50.768;6.724;2023-05-10T12:22:24;5.18;;;1.50;;
74793;SDS011;63320;50.768;6.724;2023-05-10T12:24:49;3.13;;;1.58;;
74793;SDS011;63320;50.768;6.724;2023-05-10T12:27:17;3.00;;;1.52;;
74793;SDS011;63320;50.768;6.724;2023-05-10T12:29:42;4.60;;;1.50;;
74793;SDS011;63320;50.768;6.724;2023-05-10T12:32:08;3.20;;;1.10;;
74793;SDS011;63320;50.768;6.724;2023-05-10T12:34:34;2.80;;;1.10;;
74793;SDS011;63320;50.768;6.724;2023-05-10T12:37:00;3.53;;;1.00;;
74793;SDS011;63320;50.768;6.724;2023-05-10T12:39:26;3.08;;;1.05;;
74793;SDS011;63320;50.768;6.724;2023-05-10T12:42:03;5.80;;;1.20;;
74793;SDS011;63320;50.768;6.724;2023-05-10T12:44:30;2.22;;;1.13;;
74793;SDS011;63320;50.768;6.724;2023-05-10T12:46:55;1.95;;;0.93;;
74793;SDS011;63320;50.768;6.724;2023-05-10T12:49:21;1.95;;;0.80;;
74793;SDS011;63320;50.768;6.724;2023-05-10T12:51:46;2.75;;;0.90;;
74793;SDS011;63320;50.768;6.724;2023-05-10T12:54:11;2.53;;;1.02;;
74793;SDS011;63320;50.768;6.724;2023-05-10T12:56:37;3.13;;;1.20;;
74793;SDS011;63320;50.768;6.724;2023-05-10T12:59:02;3.88;;;1.40;;
74793;SDS011;63320;50.768;6.724;2023-05-10T13:01:29;5.28;;;1.45;;
74793;SDS011;63320;50.768;6.724;2023-05-10T13:03:54;2.60;;;1.30;;
74793;SDS011;63320;50.768;6.724;2023-05-10T13:06:19;3.22;;;1.33;;
74793;SDS011;63320;50.768;6.724;2023-05-10T13:08:45;3.42;;;1.50;;
74793;SDS011;63320;50.768;6.724;2023-05-10T13:11:10;3.40;;;1.25;;
74793;SDS011;63320;50.768;6.724;2023-05-10T13:13:35;2.33;;;1.17;;
74793;SDS011;63320;50.768;6.724;2023-05-10T13:16:01;2.50;;;1.20;;
74793;SDS011;63320;50.768;6.724;2023-05-10T13:18:27;2.83;;;1.10;;
74793;SDS011;63320;50.768;6.724;2023-05-10T13:20:53;4.22;;;1.00;;
74793;SDS011;63320;50.768;6.724;2023-05-10T13:23:18;2.38;;;1.10;;
74793;SDS011;63320;50.768;6.724;2023-05-10T13:25:44;2.45;;;1.00;;
74793;SDS011;63320;50.768;6.724;2023-05-10T13:28:09;2.88;;;0.73;;
74793;SDS011;63320;50.768;6.724;2023-05-10T13:30:34;1.67;;;0.82;;
74793;SDS011;63320;50.768;6.724;2023-05-10T13:33:00;2.92;;;1.10;;
74793;SDS011;63320;50.768;6.724;2023-05-10T13:35:26;2.33;;;0.90;;
74793;SDS011;63320;50.768;6.724;2023-05-10T13:37:52;1.77;;;0.90;;
74793;SDS011;63320;50.768;6.724;2023-05-10T13:40:17;3.53;;;1.05;;
74793;SDS011;63320;50.768;6.724;2023-05-10T13:42:42;3.50;;;1.60;;
74793;SDS011;63320;50.768;6.724;2023-05-10T13:45:08;2.70;;;1.40;;
74793;SDS011;63320;50.768;6.724;2023-05-10T13:47:34;2.83;;;1.30;;
74793;SDS011;63320;50.768;6.724;2023-05-10T13:49:59;3.78;;;1.20;;
74793;SDS011;63320;50.768;6.724;2023-05-10T13:52:26;2.97;;;1.35;;
74793;SDS011;63320;50.768;6.724;2023-05-10T13:54:51;1.75;;;1.00;;
74793;SDS011;63320;50.768;6.724;2023-05-10T13:57:16;2.03;;;0.93;;
74793;SDS011;63320;50.768;6.724;2023-05-10T13:59:42;1.90;;;0.80;;
74793;SDS011;63320;50.768;6.724;2023-05-10T14:02:07;2.22;;;1.05;;
74793;SDS011;63320;50.768;6.724;2023-05-10T14:04:32;3.67;;;1.20;;
74793;SDS011;63320;50.768;6.724;2023-05-10T14:06:58;2.72;;;1.30;;
74793;SDS011;63320;50.768;6.724;2023-05-10T14:09:24;3.47;;;1.70;;
74793;SDS011;63320;50.768;6.724;2023-05-10T14:11:50;3.00;;;1.40;;
74793;SDS011;63320;50.768;6.724;2023-05-10T14:14:15;2.97;;;1.42;;
74793;SDS011;63320;50.768;6.724;2023-05-10T14:16:41;3.42;;;1.60;;
74793;SDS011;63320;50.768;6.724;2023-05-10T14:19:07;2.92;;;1.40;;
74793;SDS011;63320;50.768;6.724;2023-05-10T14:21:32;3.55;;;1.27;;
74793;SDS011;63320;50.768;6.724;2023-05-10T14:23:58;2.78;;;1.48;;
74793;SDS011;63320;50.768;6.724;2023-05-10T14:26:24;4.40;;;1.50;;
74793;SDS011;63320;50.768;6.724;2023-05-10T14:28:50;3.00;;;1.40;;
74793;SDS011;63320;50.768;6.724;2023-05-10T14:31:15;3.05;;;1.33;;
74793;SDS011;63320;50.768;6.724;2023-05-10T14:33:40;3.45;;;1.40;;
74793;SDS011;63320;50.768;6.724;2023-05-10T14:36:06;3.20;;;1.30;;
74793;SDS011;63320;50.768;6.724;2023-05-10T14:38:32;4.47;;;1.40;;
74793;SDS011;63320;50.768;6.724;2023-05-10T14:40:57;4.03;;;1.63;;
74793;SDS011;63320;50.768;6.724;2023-05-10T14:43:24;2.95;;;1.30;;
74793;SDS011;63320;50.768;6.724;2023-05-10T14:45:49;3.83;;;1.50;;